Time;durP1;ratioP1;P1;durP2;ratioP2;P2;SDS_P1;SDS_P2;PMS_P1;PMS_P2;Temp;Humidity;BMP_temperature;BMP_pressure;BME280_temperature;BME280_humidity;BME280_pressure;Samples;Min_cycle;Max_cycle;Signal;HPM_P1;HPM_P2
2021/07/14 00:00:49;;;;;;;20.00;14.50;;;17.00;99.90;;;;;;5067852;28;20738;-77
2021/07/14 00:03:14;;;;;;;18.37;14.50;;;17.10;99.90;;;;;;5069834;28;20173;-79
2021/07/14 00:05:40;;;;;;;20.30;14.30;;;17.00;99.90;;;;;;5053880;28;20200;-78
2021/07/14 00:08:08;;;;;;;19.13;14.00;;;17.00;99.90;;;;;;5053152;28;20172;-78
2021/07/14 00:10:35;;;;;;;18.17;14.37;;;17.00;99.90;;;;;;5053106;28;20161;-80
2021/07/14 00:23:30;;;;;;;16.47;11.70;;;17.00;99.90;;;;;;5052604;28;20241;-80
2021/07/14 00:25:57;;;;;;;17.23;12.43;;;16.90;99.90;;;;;;5052310;28;20184;-75
2021/07/14 00:28:22;;;;;;;15.33;11.70;;;16.90;99.90;;;;;;5052641;28;20653;-79
2021/07/14 00:30:53;;;;;;;15.57;12.50;;;17.00;99.90;;;;;;5055920;28;20193;-81
2021/07/14 00:33:19;;;;;;;13.27;10.30;;;16.90;99.90;;;;;;5056196;28;20263;-77
2021/07/14 00:35:45;;;;;;;16.50;11.53;;;16.90;99.90;;;;;;5056767;28;20196;-77
2021/07/14 00:38:11;;;;;;;17.30;11.93;;;16.90;99.90;;;;;;5056508;28;20648;-79
2021/07/14 00:40:37;;;;;;;17.37;12.73;;;16.90;99.90;;;;;;5056592;28;20520;-76
2021/07/14 00:43:03;;;;;;;15.33;11.63;;;16.80;99.90;;;;;;5061118;28;20176;-78
2021/07/14 00:45:29;;;;;;;16.70;11.30;;;16.90;99.90;;;;;;5059818;28;20176;-80
2021/07/14 00:47:57;;;;;;;17.03;12.23;;;16.90;99.90;;;;;;5054883;28;20252;-76
2021/07/14 00:50:24;;;;;;;17.30;12.40;;;16.90;99.90;;;;;;5055924;28;20162;-76
2021/07/14 00:52:49;;;;;;;16.63;11.63;;;16.80;99.90;;;;;;5054530;28;20185;-76
2021/07/14 00:55:15;;;;;;;14.87;12.37;;;16.80;99.90;;;;;;5055698;28;20255;-79
2021/07/14 00:57:41;;;;;;;17.53;13.03;;;16.80;99.90;;;;;;5055879;28;20609;-78
2021/07/14 01:00:10;;;;;;;19.83;13.20;;;16.80;99.90;;;;;;5055804;28;20268;-75
2021/07/14 01:02:35;;;;;;;17.17;12.27;;;16.80;99.90;;;;;;5055299;28;20716;-79
2021/07/14 01:05:11;;;;;;;16.07;13.03;;;16.80;99.90;;;;;;5055320;28;20264;-77
2021/07/14 01:07:50;;;;;;;15.97;13.33;;;16.70;99.90;;;;;;5055813;28;20168;-78
2021/07/14 01:10:42;;;;;;;20.03;13.20;;;16.70;99.90;;;;;;5055224;28;20175;-80
2021/07/14 01:13:26;;;;;;;19.50;14.77;;;16.70;99.90;;;;;;5055268;28;20277;-79
2021/07/14 01:16:04;;;;;;;17.40;14.47;;;16.70;99.90;;;;;;5055147;28;20181;-77
2021/07/14 01:18:58;;;;;;;18.27;14.10;;;16.70;99.90;;;;;;5055179;28;20176;-77
2021/07/14 01:21:42;;;;;;;19.03;14.97;;;16.70;99.90;;;;;;5054887;28;20211;-80
2021/07/14 01:24:15;;;;;;;17.73;14.33;;;16.80;99.90;;;;;;5055276;28;20275;-78
2021/07/14 01:26:49;;;;;;;17.50;13.80;;;16.80;99.90;;;;;;5054811;28;20175;-78
2021/07/14 01:29:18;;;;;;;18.57;13.70;;;16.80;99.90;;;;;;5055169;28;20222;-79
2021/07/14 01:31:47;;;;;;;18.30;14.10;;;16.80;99.90;;;;;;5054869;28;20164;-75
2021/07/14 01:34:14;;;;;;;16.10;13.57;;;16.80;99.90;;;;;;5054980;28;20697;-77
2021/07/14 01:36:43;;;;;;;17.80;13.57;;;16.80;99.90;;;;;;5059005;28;20672;-75
2021/07/14 01:39:09;;;;;;;18.00;13.70;;;16.80;99.90;;;;;;5064702;28;20165;-77
2021/07/14 01:41:38;;;;;;;16.50;13.67;;;16.70;99.90;;;;;;5064641;28;20220;-75
2021/07/14 01:44:05;;;;;;;18.57;13.63;;;16.70;99.90;;;;;;5066906;28;20192;-80
2021/07/14 01:46:36;;;;;;;18.87;13.73;;;16.70;99.90;;;;;;5054677;28;20702;-78
2021/07/14 01:49:11;;;;;;;17.90;14.73;;;16.60;99.90;;;;;;5054915;28;20703;-79
2021/07/14 01:51:43;;;;;;;20.03;14.93;;;16.70;99.90;;;;;;5053243;28;20175;-76
2021/07/14 01:54:10;;;;;;;19.37;14.57;;;16.80;99.90;;;;;;5054758;28;20172;-79
2021/07/14 01:56:40;;;;;;;20.80;14.77;;;16.80;99.90;;;;;;5054264;28;20157;-80
2021/07/14 01:59:07;;;;;;;24.40;15.20;;;16.70;99.90;;;;;;5054598;28;20176;-80
2021/07/14 02:01:39;;;;;;;20.67;14.33;;;16.80;99.90;;;;;;5054339;28;20223;-79
2021/07/14 02:06:50;;;;;;;22.07;14.40;;;16.80;99.90;;;;;;5054253;28;20743;-77
2021/07/14 02:09:17;;;;;;;20.37;14.13;;;16.80;99.90;;;;;;5054479;28;20168;-76
2021/07/14 02:11:49;;;;;;;19.37;13.67;;;16.80;99.90;;;;;;5053893;28;20173;-78
2021/07/14 02:14:24;;;;;;;19.73;14.00;;;16.70;99.90;;;;;;5054326;28;20176;-79
2021/07/14 02:16:50;;;;;;;16.53;12.90;;;16.70;99.90;;;;;;5054552;28;20271;-78
2021/07/14 02:19:20;;;;;;;27.80;14.10;;;16.60;99.90;;;;;;5054442;28;20165;-79
2021/07/14 02:21:46;;;;;;;21.50;13.73;;;16.70;99.90;;;;;;5054221;28;20558;-78
2021/07/14 02:24:13;;;;;;;17.47;13.63;;;16.60;99.90;;;;;;5054673;28;20165;-75
2021/07/14 02:26:40;;;;;;;17.80;12.93;;;16.70;99.90;;;;;;5055365;28;20192;-76
2021/07/14 02:29:06;;;;;;;18.03;12.50;;;16.70;99.90;;;;;;5061097;28;20164;-77
2021/07/14 02:31:33;;;;;;;19.53;13.07;;;16.60;99.90;;;;;;5064923;28;20167;-78
2021/07/14 02:34:08;;;;;;;14.90;11.77;;;16.80;99.90;;;;;;5067263;28;20200;-78
2021/07/14 02:36:35;;;;;;;16.97;13.13;;;16.70;99.90;;;;;;5066875;28;20177;-78
2021/07/14 02:39:04;;;;;;;20.13;13.27;;;16.70;99.90;;;;;;5064859;28;20169;-76
2021/07/14 02:41:45;;;;;;;20.53;14.03;;;16.70;99.90;;;;;;5052656;28;20215;-78
2021/07/14 02:44:14;;;;;;;16.67;13.07;;;16.70;99.90;;;;;;5053810;28;20175;-75
2021/07/14 02:46:43;;;;;;;19.67;13.73;;;16.80;99.90;;;;;;5053791;28;20192;-78
2021/07/14 02:49:12;;;;;;;20.83;14.07;;;16.70;99.90;;;;;;5053689;28;20218;-79
2021/07/14 02:51:41;;;;;;;26.17;15.33;;;16.70;99.90;;;;;;5053207;28;20157;-78
2021/07/14 02:54:17;;;;;;;25.87;15.83;;;16.70;99.90;;;;;;5054098;28;20179;-78
2021/07/14 02:56:44;;;;;;;17.10;15.20;;;16.70;99.90;;;;;;5054344;28;20164;-78
2021/07/14 02:59:11;;;;;;;22.43;15.33;;;16.70;99.90;;;;;;5054876;28;20224;-78
2021/07/14 03:01:41;;;;;;;20.93;14.60;;;16.70;99.90;;;;;;5055313;28;20247;-79
2021/07/14 03:04:08;;;;;;;25.47;16.77;;;16.70;99.90;;;;;;5055982;28;20172;-79
2021/07/14 03:06:35;;;;;;;25.87;16.50;;;16.70;99.90;;;;;;5054846;28;20593;-79
2021/07/14 03:09:05;;;;;;;24.40;16.23;;;16.70;99.90;;;;;;5051891;28;20180;-77
2021/07/14 03:11:38;;;;;;;23.87;16.53;;;16.70;99.90;;;;;;5055824;28;20169;-77
2021/07/14 03:14:05;;;;;;;27.17;17.33;;;16.60;99.90;;;;;;5059491;28;20169;-78
2021/07/14 03:16:36;;;;;;;28.67;16.83;;;16.70;99.90;;;;;;5057291;28;20199;-78
2021/07/14 03:19:02;;;;;;;24.40;17.47;;;16.70;99.90;;;;;;5059502;28;20173;-78
2021/07/14 03:21:31;;;;;;;27.40;17.73;;;16.80;99.90;;;;;;5058102;28;20200;-78
2021/07/14 03:24:00;;;;;;;24.50;17.90;;;16.80;99.90;;;;;;5053117;28;20193;-76
2021/07/14 03:26:27;;;;;;;23.70;18.37;;;16.80;99.90;;;;;;5053102;28;20247;-79
2021/07/14 03:28:53;;;;;;;29.30;18.37;;;16.80;99.90;;;;;;5052980;28;20169;-79
2021/07/14 03:31:20;;;;;;;27.60;17.80;;;16.90;99.90;;;;;;5053094;28;20172;-80
2021/07/14 03:33:46;;;;;;;26.60;18.97;;;16.90;99.90;;;;;;5052916;28;20165;-77
2021/07/14 03:36:13;;;;;;;30.03;19.33;;;16.90;99.90;;;;;;5052987;28;20188;-77
2021/07/14 03:38:39;;;;;;;25.87;17.87;;;16.90;99.90;;;;;;5052724;28;20168;-79
2021/07/14 03:41:06;;;;;;;24.13;18.03;;;16.90;99.90;;;;;;5053535;28;20289;-76
2021/07/14 03:43:34;;;;;;;23.20;17.10;;;16.90;99.90;;;;;;5052704;28;20231;-76
2021/07/14 03:46:03;;;;;;;29.10;19.90;;;16.90;99.90;;;;;;5052916;28;20161;-79
2021/07/14 03:48:31;;;;;;;25.63;18.50;;;17.10;99.90;;;;;;5052836;28;20176;-75
2021/07/14 03:51:00;;;;;;;24.73;18.50;;;16.90;99.90;;;;;;5052866;28;20169;-79
2021/07/14 03:53:27;;;;;;;23.63;17.37;;;17.00;99.90;;;;;;5052591;28;20252;-76
2021/07/14 03:55:53;;;;;;;29.17;17.77;;;17.00;99.90;;;;;;5052762;28;20173;-76
2021/07/14 03:58:21;;;;;;;24.47;17.50;;;16.90;99.90;;;;;;5052721;28;20251;-77
2021/07/14 04:00:51;;;;;;;27.77;18.57;;;16.90;99.90;;;;;;5052656;28;20221;-79
2021/07/14 04:03:27;;;;;;;26.20;17.53;;;16.80;99.90;;;;;;5053119;28;20246;-76
2021/07/14 04:06:01;;;;;;;28.17;17.80;;;16.90;99.90;;;;;;5071886;28;20173;-76
2021/07/14 04:09:02;;;;;;;24.80;17.77;;;16.80;99.90;;;;;;5072572;28;20172;-79
2021/07/14 04:11:27;;;;;;;27.33;17.17;;;16.90;99.90;;;;;;5056987;28;20176;-75
2021/07/14 04:13:53;;;;;;;28.70;17.30;;;17.00;99.90;;;;;;5057461;28;20192;-79
2021/07/14 04:16:19;;;;;;;30.00;18.70;;;17.10;99.90;;;;;;5070007;28;20181;-76
2021/07/14 04:18:44;;;;;;;27.77;18.20;;;17.00;99.90;;;;;;5060207;28;20182;-77
2021/07/14 04:21:13;;;;;;;28.47;17.97;;;16.90;99.90;;;;;;5056483;28;20664;-79
2021/07/14 04:23:39;;;;;;;32.27;17.80;;;16.90;99.90;;;;;;5056466;28;20668;-79
2021/07/14 04:26:04;;;;;;;31.37;18.67;;;16.90;99.90;;;;;;5056168;28;20254;-79
2021/07/14 04:28:32;;;;;;;30.07;19.77;;;16.90;99.90;;;;;;5056344;28;20202;-78
2021/07/14 04:30:57;;;;;;;27.83;19.50;;;16.90;99.90;;;;;;5055102;28;20581;-76
2021/07/14 04:33:23;;;;;;;35.37;19.37;;;16.90;99.90;;;;;;5056265;28;20645;-80
2021/07/14 04:35:50;;;;;;;29.50;20.27;;;17.00;99.90;;;;;;5056687;28;20291;-79
2021/07/14 04:38:16;;;;;;;34.43;19.57;;;17.00;99.90;;;;;;5068040;28;20168;-76
2021/07/14 04:40:43;;;;;;;33.17;19.60;;;17.00;99.90;;;;;;5063998;28;20710;-75
2021/07/14 04:43:10;;;;;;;33.63;20.03;;;16.90;99.90;;;;;;5060956;28;20177;-76
2021/07/14 04:45:37;;;;;;;34.43;20.07;;;16.90;99.90;;;;;;5056180;28;20173;-78
2021/07/14 04:48:03;;;;;;;31.97;20.20;;;16.80;99.90;;;;;;5056119;28;20204;-79
2021/07/14 04:50:29;;;;;;;35.17;21.63;;;16.90;99.90;;;;;;5055649;28;20231;-79
2021/07/14 04:52:55;;;;;;;36.90;20.57;;;16.90;99.90;;;;;;5055898;28;20260;-80
2021/07/14 04:55:21;;;;;;;32.93;20.53;;;16.90;99.90;;;;;;5055871;28;20193;-77
2021/07/14 04:57:47;;;;;;;33.90;20.23;;;16.90;99.90;;;;;;5055685;28;20176;-76
2021/07/14 05:00:16;;;;;;;29.37;20.50;;;17.00;99.90;;;;;;5055407;28;20169;-76
2021/07/14 05:02:45;;;;;;;34.07;21.33;;;16.90;99.90;;;;;;5055580;28;20215;-79
2021/07/14 05:05:16;;;;;;;40.07;21.73;;;16.90;99.90;;;;;;5055561;28;20183;-77
2021/07/14 05:07:42;;;;;;;33.00;20.70;;;16.90;99.90;;;;;;5055431;28;20173;-79
2021/07/14 05:10:09;;;;;;;36.13;21.47;;;17.00;99.90;;;;;;5055420;28;20165;-79
2021/07/14 05:12:35;;;;;;;33.50;21.27;;;17.00;99.90;;;;;;5054251;28;20202;-79
2021/07/14 05:15:01;;;;;;;39.50;21.80;;;17.00;99.90;;;;;;5054947;28;20554;-78
2021/07/14 05:17:28;;;;;;;37.63;21.83;;;17.00;99.90;;;;;;5055724;28;20169;-79
2021/07/14 05:19:54;;;;;;;27.67;21.20;;;17.00;99.90;;;;;;5055319;28;20164;-78
2021/07/14 05:22:21;;;;;;;33.87;21.07;;;16.90;99.90;;;;;;5054962;28;20230;-80
2021/07/14 05:24:46;;;;;;;36.33;21.77;;;16.90;99.90;;;;;;5054316;28;20172;-75
2021/07/14 05:27:12;;;;;;;35.20;21.13;;;16.90;99.90;;;;;;5054019;28;20268;-78
2021/07/14 05:29:38;;;;;;;32.60;22.50;;;17.00;99.90;;;;;;5055380;28;20175;-77
2021/07/14 05:32:05;;;;;;;32.43;21.93;;;16.90;99.90;;;;;;5055315;28;20165;-79
2021/07/14 05:34:32;;;;;;;32.57;21.23;;;16.90;99.90;;;;;;5055128;28;20177;-77
2021/07/14 05:36:58;;;;;;;29.03;21.07;;;16.90;99.90;;;;;;5055114;28;20535;-79
2021/07/14 05:39:24;;;;;;;34.47;22.33;;;16.90;99.90;;;;;;5054962;28;20695;-77
2021/07/14 05:41:50;;;;;;;32.13;21.10;;;16.90;99.90;;;;;;5053270;28;20212;-76
2021/07/14 05:44:16;;;;;;;38.57;22.53;;;16.90;99.90;;;;;;5054913;28;20688;-79
2021/07/14 05:46:43;;;;;;;37.47;23.30;;;17.00;99.90;;;;;;5054336;28;20256;-77
2021/07/14 05:49:09;;;;;;;33.37;22.27;;;17.10;99.90;;;;;;5054417;28;20626;-77
2021/07/14 05:51:35;;;;;;;33.40;22.67;;;16.90;99.90;;;;;;5053098;28;20644;-77
2021/07/14 05:54:00;;;;;;;34.80;22.83;;;17.00;99.90;;;;;;5054660;28;20180;-77
2021/07/14 05:56:26;;;;;;;32.70;21.97;;;17.00;99.90;;;;;;5054934;28;20256;-79
2021/07/14 05:58:53;;;;;;;35.47;23.23;;;17.00;99.90;;;;;;5057748;28;20161;-76
2021/07/14 06:01:19;;;;;;;30.23;21.23;;;16.90;99.90;;;;;;5069498;28;20248;-75
2021/07/14 06:03:47;;;;;;;34.63;22.37;;;16.90;99.90;;;;;;5065152;28;20503;-77
2021/07/14 06:06:17;;;;;;;33.23;21.57;;;16.90;99.90;;;;;;5057717;28;20180;-78
2021/07/14 06:08:46;;;;;;;32.70;21.70;;;16.90;99.90;;;;;;5066633;28;20165;-78
2021/07/14 06:11:12;;;;;;;29.43;19.27;;;16.90;99.90;;;;;;5054896;28;20173;-78
2021/07/14 06:13:38;;;;;;;25.97;20.13;;;16.80;99.90;;;;;;5055954;28;20169;-75
2021/07/14 06:16:04;;;;;;;27.03;19.90;;;16.80;99.90;;;;;;5061221;28;20188;-79
2021/07/14 06:18:29;;;;;;;27.03;18.67;;;16.80;99.90;;;;;;5054427;28;20165;-80
2021/07/14 06:20:55;;;;;;;23.43;16.50;;;16.70;99.90;;;;;;5054011;28;20215;-80
2021/07/14 06:23:21;;;;;;;22.87;17.97;;;16.80;99.90;;;;;;5054424;28;20722;-76
2021/07/14 06:25:47;;;;;;;22.73;18.07;;;16.80;99.90;;;;;;5054052;28;20252;-81
2021/07/14 06:28:13;;;;;;;29.13;18.47;;;16.80;99.90;;;;;;5053346;28;20255;-80
2021/07/14 06:30:43;;;;;;;24.10;16.67;;;16.90;99.90;;;;;;5054587;28;20199;-78
2021/07/14 06:33:09;;;;;;;24.23;16.77;;;16.90;99.90;;;;;;5055080;28;20179;-80
2021/07/14 06:35:35;;;;;;;24.20;16.57;;;16.80;99.90;;;;;;5054292;28;20176;-81
2021/07/14 06:38:01;;;;;;;21.57;16.20;;;16.80;99.90;;;;;;5054041;28;20204;-79
2021/07/14 06:40:27;;;;;;;18.97;15.30;;;16.80;99.90;;;;;;5052778;28;20231;-76
2021/07/14 06:42:53;;;;;;;20.87;14.83;;;16.80;99.90;;;;;;5053866;28;20177;-76
2021/07/14 06:45:21;;;;;;;18.90;14.10;;;16.80;99.90;;;;;;5054094;28;20165;-79
2021/07/14 06:47:47;;;;;;;19.03;14.37;;;16.60;99.90;;;;;;5034483;28;20181;-80
2021/07/14 06:50:13;;;;;;;22.57;14.87;;;16.70;99.90;;;;;;5033514;28;20637;-79
2021/07/14 06:52:43;;;;;;;19.70;14.20;;;16.70;99.90;;;;;;5033316;28;20173;-82
2021/07/14 06:55:10;;;;;;;18.37;14.90;;;16.70;99.90;;;;;;5032923;28;20173;-80
2021/07/14 06:57:37;;;;;;;19.73;14.27;;;16.70;99.90;;;;;;5032484;28;20177;-81
2021/07/14 07:00:05;;;;;;;17.93;13.53;;;16.70;99.90;;;;;;5033252;28;20197;-79
2021/07/14 07:02:31;;;;;;;16.90;13.07;;;16.70;99.90;;;;;;5033091;28;20282;-76
2021/07/14 07:04:56;;;;;;;21.97;15.23;;;16.70;99.90;;;;;;5033915;28;20264;-81
2021/07/14 07:07:22;;;;;;;18.47;13.83;;;16.70;99.90;;;;;;5035997;28;20169;-76
2021/07/14 07:09:48;;;;;;;18.23;13.83;;;16.70;99.90;;;;;;5045502;28;20173;-75
2021/07/14 07:12:15;;;;;;;18.57;14.67;;;16.80;99.90;;;;;;5056183;28;20183;-74
2021/07/14 07:14:40;;;;;;;19.83;14.27;;;16.80;99.90;;;;;;5063124;28;20672;-77
2021/07/14 07:17:06;;;;;;;22.37;14.63;;;16.70;99.90;;;;;;5064865;28;20194;-75
2021/07/14 07:19:32;;;;;;;16.17;13.60;;;16.70;99.90;;;;;;5054158;28;20168;-77
2021/07/14 07:21:58;;;;;;;17.23;13.30;;;16.80;99.90;;;;;;5053798;28;20209;-80
2021/07/14 07:24:25;;;;;;;17.63;13.43;;;16.80;99.90;;;;;;5053321;28;20161;-80
2021/07/14 07:26:51;;;;;;;17.23;13.87;;;16.80;99.90;;;;;;5044955;28;20264;-79
2021/07/14 07:29:24;;;;;;;15.90;13.97;;;16.80;99.90;;;;;;5033228;28;20637;-78
2021/07/14 07:31:51;;;;;;;16.10;13.33;;;16.80;99.90;;;;;;5033450;28;20166;-80
2021/07/14 07:34:18;;;;;;;17.60;13.97;;;16.90;99.90;;;;;;5033351;28;20517;-77
2021/07/14 07:36:45;;;;;;;19.47;13.43;;;17.00;99.90;;;;;;5033099;28;20264;-79
2021/07/14 07:39:12;;;;;;;18.07;13.37;;;16.90;99.90;;;;;;5034288;28;20192;-80
2021/07/14 07:41:38;;;;;;;17.50;14.23;;;16.90;99.90;;;;;;5038605;28;20193;-82
2021/07/14 07:44:04;;;;;;;17.07;14.70;;;16.90;99.90;;;;;;5038357;28;20172;-79
2021/07/14 07:46:29;;;;;;;17.10;15.23;;;16.90;99.90;;;;;;5048958;28;20248;-81
2021/07/14 07:48:58;;;;;;;18.77;15.70;;;16.90;99.90;;;;;;5037666;28;20169;-79
2021/07/14 07:51:24;;;;;;;17.47;15.13;;;17.00;99.90;;;;;;5037300;28;20169;-81
2021/07/14 07:53:49;;;;;;;19.73;15.33;;;16.90;99.90;;;;;;5038107;28;20173;-81
2021/07/14 07:56:15;;;;;;;20.77;15.90;;;17.00;99.90;;;;;;5037127;28;20241;-82
2021/07/14 07:58:43;;;;;;;19.20;15.17;;;17.00;99.90;;;;;;5035574;28;20228;-77
2021/07/14 08:01:09;;;;;;;17.40;14.47;;;16.90;99.90;;;;;;5044776;28;20205;-81
2021/07/14 08:03:35;;;;;;;18.10;15.30;;;17.00;99.90;;;;;;5036999;28;20172;-78
2021/07/14 08:06:00;;;;;;;16.83;13.73;;;17.00;99.90;;;;;;5036603;28;20205;-79
2021/07/14 08:08:26;;;;;;;18.27;12.90;;;17.00;99.90;;;;;;5035491;28;20184;-78
2021/07/14 08:10:55;;;;;;;18.73;14.23;;;16.90;99.90;;;;;;5044133;28;20319;-80
2021/07/14 08:13:22;;;;;;;18.60;13.37;;;16.80;99.90;;;;;;5044647;28;20304;-78
2021/07/14 08:15:48;;;;;;;17.63;14.57;;;16.80;99.90;;;;;;5036227;28;20193;-79
2021/07/14 08:18:13;;;;;;;19.37;14.60;;;16.80;99.90;;;;;;5036301;28;20537;-78
2021/07/14 08:20:39;;;;;;;18.90;14.23;;;16.90;99.90;;;;;;5036495;28;20181;-81
2021/07/14 08:23:05;;;;;;;16.30;12.90;;;16.90;99.90;;;;;;5036642;28;20202;-79
2021/07/14 08:25:30;;;;;;;14.93;12.97;;;16.90;99.90;;;;;;5036306;28;20166;-79
2021/07/14 08:27:56;;;;;;;18.57;14.10;;;16.80;99.90;;;;;;5035037;28;20212;-79
2021/07/14 08:30:22;;;;;;;18.53;14.10;;;16.80;99.90;;;;;;5035808;28;20233;-79
2021/07/14 08:32:48;;;;;;;16.03;13.87;;;16.90;99.90;;;;;;5036514;28;20185;-79
2021/07/14 08:35:15;;;;;;;16.73;12.90;;;16.80;99.90;;;;;;5035293;28;20181;-80
2021/07/14 08:37:41;;;;;;;16.77;13.33;;;16.90;99.90;;;;;;5041143;28;20213;-78
2021/07/14 08:40:08;;;;;;;16.87;13.80;;;16.80;99.90;;;;;;5052707;28;20172;-78
2021/07/14 08:42:36;;;;;;;17.60;13.97;;;16.80;99.90;;;;;;5042419;28;20559;-81
2021/07/14 08:45:05;;;;;;;16.63;12.90;;;16.80;99.90;;;;;;5035076;28;20274;-79
2021/07/14 08:47:33;;;;;;;15.20;13.10;;;16.70;99.90;;;;;;5036769;28;20188;-83
2021/07/14 08:49:59;;;;;;;19.20;13.67;;;16.70;99.90;;;;;;5034229;28;20637;-80
2021/07/14 08:52:25;;;;;;;16.77;13.90;;;16.80;99.90;;;;;;5036289;28;20191;-79
2021/07/14 08:54:52;;;;;;;20.33;13.00;;;16.80;99.90;;;;;;5036553;28;20284;-79
2021/07/14 08:57:18;;;;;;;15.40;12.50;;;16.70;99.90;;;;;;5043702;28;20164;-80
2021/07/14 08:59:46;;;;;;;17.30;13.43;;;16.70;99.90;;;;;;5050422;28;20199;-79
2021/07/14 09:02:14;;;;;;;14.27;11.97;;;16.80;99.90;;;;;;5044893;28;21706;-80
2021/07/14 09:04:39;;;;;;;15.43;12.77;;;16.80;99.90;;;;;;5047912;28;20711;-77
2021/07/14 09:07:09;;;;;;;15.40;12.03;;;16.80;99.90;;;;;;5057568;28;20186;-80
2021/07/14 09:09:37;;;;;;;12.33;11.00;;;16.90;99.90;;;;;;5063657;28;20625;-77
2021/07/14 09:12:11;;;;;;;15.50;12.40;;;16.80;99.90;;;;;;5052953;28;20231;-82
2021/07/14 09:14:42;;;;;;;13.37;11.87;;;16.90;99.90;;;;;;5044287;28;20523;-80
2021/07/14 09:17:19;;;;;;;17.97;12.17;;;16.80;99.90;;;;;;5039365;28;20656;-83
2021/07/14 09:20:00;;;;;;;15.33;11.43;;;16.90;99.90;;;;;;5049893;28;20172;-79
2021/07/14 09:22:27;;;;;;;17.73;13.40;;;16.90;99.90;;;;;;5048028;28;20201;-79
2021/07/14 09:24:57;;;;;;;15.47;12.53;;;16.80;99.90;;;;;;5040570;28;20189;-80
2021/07/14 09:27:29;;;;;;;17.37;13.53;;;16.80;99.90;;;;;;5043602;28;20214;-81
2021/07/14 09:30:12;;;;;;;17.10;13.00;;;16.70;99.90;;;;;;5036127;28;20185;-77
2021/07/14 09:32:51;;;;;;;15.87;13.50;;;16.70;99.90;;;;;;5035877;28;20165;-80
2021/07/14 09:35:34;;;;;;;17.03;13.90;;;16.70;99.90;;;;;;5034158;28;20185;-80
2021/07/14 09:38:17;;;;;;;17.77;13.23;;;16.80;99.90;;;;;;5035451;28;20162;-79
2021/07/14 09:40:48;;;;;;;18.23;12.87;;;16.70;99.90;;;;;;5035503;28;20197;-79
2021/07/14 09:43:31;;;;;;;22.10;13.57;;;16.80;99.90;;;;;;5035385;28;20277;-76
2021/07/14 09:46:03;;;;;;;16.97;13.20;;;16.70;99.90;;;;;;5035018;28;20166;-79
2021/07/14 09:48:40;;;;;;;17.00;13.50;;;16.70;99.90;;;;;;5035169;28;20164;-80
2021/07/14 09:51:19;;;;;;;16.53;14.67;;;16.80;99.90;;;;;;5033430;28;20671;-81
2021/07/14 09:53:47;;;;;;;17.83;14.27;;;16.90;99.90;;;;;;5034736;28;20177;-78
2021/07/14 09:56:21;;;;;;;18.87;15.67;;;16.90;99.90;;;;;;5034250;28;20181;-78
2021/07/14 09:58:48;;;;;;;17.07;14.80;;;16.90;99.90;;;;;;5036092;28;20170;-79
2021/07/14 10:01:16;;;;;;;20.93;16.53;;;16.70;99.90;;;;;;5033611;28;20213;-81
2021/07/14 10:03:50;;;;;;;20.80;15.83;;;16.90;99.90;;;;;;5035415;28;20235;-80
2021/07/14 10:06:16;;;;;;;23.73;16.83;;;16.80;99.90;;;;;;5034768;28;20180;-79
2021/07/14 10:08:47;;;;;;;19.87;16.67;;;16.70;99.90;;;;;;5034316;28;20166;-80
2021/07/14 10:11:21;;;;;;;21.23;15.17;;;16.80;99.90;;;;;;5034438;28;20630;-79
2021/07/14 10:14:02;;;;;;;19.63;15.93;;;16.80;99.90;;;;;;5034846;28;20177;-79
2021/07/14 10:16:29;;;;;;;20.20;16.30;;;16.80;99.90;;;;;;5034029;28;20232;-79
2021/07/14 10:19:12;;;;;;;20.47;17.83;;;16.80;99.90;;;;;;5035347;28;20170;-78
2021/07/14 10:21:42;;;;;;;22.30;17.63;;;16.90;99.90;;;;;;5044032;28;20191;-76
2021/07/14 10:24:12;;;;;;;18.03;15.87;;;16.80;99.90;;;;;;5047820;28;20176;-78
2021/07/14 10:26:40;;;;;;;20.03;14.67;;;16.80;99.90;;;;;;5040850;28;20540;-81
2021/07/14 10:29:07;;;;;;;18.50;16.43;;;16.80;99.90;;;;;;5046484;28;20175;-79
2021/07/14 10:31:39;;;;;;;19.50;16.17;;;16.80;99.90;;;;;;5035194;28;20174;-79
2021/07/14 10:34:07;;;;;;;20.03;16.27;;;16.80;99.90;;;;;;5035519;28;20177;-78
2021/07/14 10:36:37;;;;;;;19.60;16.73;;;16.80;99.90;;;;;;5032590;28;20205;-82
2021/07/14 10:39:14;;;;;;;20.27;15.77;;;16.80;99.90;;;;;;5034796;28;20161;-80
2021/07/14 10:41:41;;;;;;;18.40;16.23;;;16.80;99.90;;;;;;5034574;28;20223;-78
2021/07/14 10:44:07;;;;;;;20.33;16.90;;;16.90;99.90;;;;;;5034442;28;20173;-82
2021/07/14 10:46:35;;;;;;;18.37;15.60;;;16.90;99.90;;;;;;5034554;28;20181;-80
2021/07/14 10:49:04;;;;;;;22.50;17.87;;;16.80;99.90;;;;;;5034324;28;20655;-78
2021/07/14 10:51:31;;;;;;;19.57;17.50;;;16.90;99.90;;;;;;5034302;28;20528;-78
2021/07/14 10:54:09;;;;;;;24.77;18.90;;;16.90;99.90;;;;;;5034512;28;20165;-79
2021/07/14 10:56:41;;;;;;;20.83;16.90;;;16.90;99.90;;;;;;5034299;28;20303;-79
2021/07/14 10:59:07;;;;;;;21.30;15.73;;;17.00;99.90;;;;;;5033885;28;20168;-78
2021/07/14 11:01:41;;;;;;;24.00;18.40;;;17.00;99.90;;;;;;5046169;28;20205;-77
2021/07/14 11:04:19;;;;;;;19.03;14.77;;;17.10;99.90;;;;;;5033536;28;20182;-80
2021/07/14 11:07:02;;;;;;;19.50;17.40;;;17.00;99.90;;;;;;5033747;28;20173;-82
2021/07/14 11:09:39;;;;;;;14.43;12.80;;;17.10;99.90;;;;;;5043845;28;20172;-77
2021/07/14 11:12:09;;;;;;;14.63;13.17;;;17.10;99.90;;;;;;5049255;28;20168;-80
2021/07/14 11:14:36;;;;;;;14.63;13.00;;;17.10;99.90;;;;;;5045273;28;20181;-79
2021/07/14 11:17:03;;;;;;;12.63;10.43;;;17.10;99.90;;;;;;5047536;28;20181;-77
2021/07/14 11:19:48;;;;;;;10.60;9.43;;;17.10;99.90;;;;;;5037180;28;20512;-77
2021/07/14 11:22:51;;;;;;;11.37;9.13;;;17.20;99.90;;;;;;5035437;28;20290;-81
2021/07/14 11:25:30;;;;;;;9.73;8.00;;;17.20;99.90;;;;;;5033343;28;20157;-79
2021/07/14 11:28:06;;;;;;;8.47;7.30;;;17.10;99.90;;;;;;5033702;28;20240;-79
2021/07/14 11:30:36;;;;;;;10.90;8.20;;;17.20;99.90;;;;;;5033815;28;20166;-79
2021/07/14 11:33:03;;;;;;;9.37;8.37;;;17.20;99.90;;;;;;5033200;28;20669;-78
2021/07/14 11:35:43;;;;;;;10.83;9.67;;;17.20;99.90;;;;;;5033554;28;20169;-82
2021/07/14 11:38:18;;;;;;;11.47;9.73;;;17.30;99.90;;;;;;5033177;28;20173;-81
2021/07/14 11:40:52;;;;;;;11.43;9.03;;;17.30;99.90;;;;;;5033754;28;20578;-80
2021/07/14 11:43:21;;;;;;;11.30;10.00;;;17.20;99.90;;;;;;5033880;28;20538;-78
2021/07/14 11:46:05;;;;;;;11.57;9.80;;;17.20;99.90;;;;;;5034780;28;20165;-79
2021/07/14 11:48:34;;;;;;;12.37;9.97;;;17.20;99.90;;;;;;5033974;28;20181;-83
2021/07/14 11:51:23;;;;;;;13.63;8.83;;;17.20;99.90;;;;;;5033055;28;20641;-80
2021/07/14 11:53:54;;;;;;;11.63;8.40;;;17.30;99.90;;;;;;5027724;28;20176;-78
2021/07/14 11:56:34;;;;;;;10.90;8.67;;;17.20;99.90;;;;;;5032910;28;20165;-78
2021/07/14 11:59:24;;;;;;;10.03;9.03;;;17.40;99.90;;;;;;5032736;28;20166;-79
2021/07/14 12:01:54;;;;;;;11.63;9.23;;;17.30;99.90;;;;;;5032531;28;20263;-79
2021/07/14 12:04:24;;;;;;;11.67;9.60;;;17.30;99.90;;;;;;5032683;28;20174;-78
2021/07/14 12:06:52;;;;;;;11.20;9.53;;;17.40;99.90;;;;;;5032424;28;20170;-78
2021/07/14 12:09:18;;;;;;;10.70;8.60;;;17.40;99.90;;;;;;5032663;28;20177;-79
2021/07/14 12:11:56;;;;;;;9.77;8.07;;;17.50;99.90;;;;;;5032625;28;20170;-80
2021/07/14 12:14:37;;;;;;;12.17;8.20;;;17.50;99.90;;;;;;5030627;28;20356;-80
2021/07/14 12:17:17;;;;;;;10.50;7.57;;;17.60;99.90;;;;;;5031917;28;20243;-78
2021/07/14 12:19:45;;;;;;;10.13;8.27;;;17.50;99.90;;;;;;5031864;28;20785;-80
2021/07/14 12:22:21;;;;;;;10.40;8.13;;;17.50;99.90;;;;;;5035314;28;20214;-77
2021/07/14 12:24:58;;;;;;;11.63;8.00;;;17.60;99.90;;;;;;5041359;28;20161;-77
2021/07/14 12:27:29;;;;;;;11.93;7.87;;;17.50;99.90;;;;;;5037018;28;20169;-79
2021/07/14 12:29:59;;;;;;;11.47;7.57;;;17.60;99.90;;;;;;5037067;28;20633;-82
2021/07/14 12:32:54;;;;;;;9.20;7.30;;;17.70;99.90;;;;;;5037261;28;20165;-78
2021/07/14 12:35:27;;;;;;;8.43;6.83;;;17.70;99.90;;;;;;5039695;28;20166;-78
2021/07/14 12:37:54;;;;;;;11.20;7.13;;;17.70;99.90;;;;;;5043509;28;20206;-81
2021/07/14 12:40:31;;;;;;;10.20;7.80;;;17.80;99.90;;;;;;5037003;28;20170;-79
2021/07/14 12:43:00;;;;;;;9.07;5.67;;;17.90;99.90;;;;;;5036886;28;20204;-78
2021/07/14 12:45:33;;;;;;;8.73;6.43;;;17.90;99.90;;;;;;5036606;28;20166;-79
2021/07/14 12:48:04;;;;;;;7.43;5.83;;;17.80;99.90;;;;;;5043217;28;20241;-78
2021/07/14 12:50:31;;;;;;;7.77;6.00;;;18.00;99.90;;;;;;5046440;28;20201;-78
2021/07/14 12:52:59;;;;;;;8.90;6.00;;;18.00;99.90;;;;;;5038449;28;20166;-81